FMH weather

Cape Cod Coast Guard Air Station
Falmouth, Massachusetts, United States

Public forecast

Using degrees Fahrenheit for public forecast. Weather courtesy of forecast.io.

Current aviation weather report (METAR) for Cape Cod Coast Guard Air Station

Retrieved 2020/05/25 11:56 UTC (53 minutes ago):

KFMH 251156Z COR 05008KT 1SM BR OVC003 12/12 A3026

Aviation forecast (TAF) for Cape Cod Coast Guard Air Station

Retrieved 2020/05/25 12:27 UTC (22 minutes ago):

TAF KFMH 251124Z 2512/2612 05008KT 2SM BR VCSH OVC003 FM251400 08006KT 6SM BR VCSH OVC008 FM251900 11006KT P6SM OVC010 FM252300 11005KT 1 1/2SM BR VCSH OVC008 FM260500 00000KT 1SM BR OVC008 FM260900 00000KT 2SM BR VCSH OVC003